Terminal Aerodrome Forecast
Issued by NWS Brownsville, TX

Home | Current Version | Previous Version | Text Only | Print | Product List | Glossary On
Versions: 1 2 3 4 5 6 7 8 9 10 11 12 13 14 15 16 17 18
033
FTUS44 KBRO 170520
TAFBRO
TAF
KBRO 170520Z 1706/1806 30003KT 5SM BR OVC003
     FM171900 35004KT 5SM BR OVC006
     FM180200 06006KT 2SM BR OVC003=

USA.gov is the U.S. government's official web portal to all federal, state and local government web resources and services.